Time;durP1;ratioP1;P1;durP2;ratioP2;P2;SDS_P1;SDS_P2;PMS_P1;PMS_P2;Temp;Humidity;BMP_temperature;BMP_pressure;BME280_temperature;BME280_humidity;BME280_pressure;Samples;Min_cycle;Max_cycle;Signal;HPM_P1;HPM_P2
2022/05/29 00:00:45;;;;;;;;;;;;;;;;;;2081048;28;19917;-88
2022/05/29 00:01:45;;;;;;;;;;;;;;;;;;2081326;28;19913;-87
2022/05/29 00:02:48;;;;;;;;;;;;;;;;;;2089963;28;20000;-87
2022/05/29 00:03:49;;;;;;;;;;;;;;;;;;2081363;28;19927;-87
2022/05/29 00:04:50;;;;;;;;;;;;;;;;;;2081372;28;19928;-87
2022/05/29 00:05:52;;;;;;;;;;;;;;;;;;2090490;28;20054;-87
2022/05/29 00:06:56;;;;;;;;;;;;;;;;;;2090852;28;19913;-86
2022/05/29 00:07:57;;;;;;;;;;;;;;;;;;2090953;28;19923;-87
2022/05/29 00:08:57;;;;;;;;;;;;;;;;;;2082158;28;19938;-87
2022/05/29 00:09:57;;;;;;;;;;;;;;;;;;2081531;28;20362;-87
2022/05/29 00:10:58;;;;;;;;;;;;;;;;;;2084753;28;19988;-88
2022/05/29 00:11:59;;;;;;;;;;;;;;;;;;2084766;28;19913;-86
2022/05/29 00:13:00;;;;;;;;;;;;;;;;;;2083400;28;19984;-87
2022/05/29 00:14:00;;;;;;;;;;;;;;;;;;2090944;28;20109;-87
2022/05/29 00:15:01;;;;;;;;;;;;;;;;;;2082252;28;19913;-88
2022/05/29 00:16:03;;;;;;;;;;;;;;;;;;2082590;28;19913;-88
2022/05/29 00:17:04;;;;;;;;;;;;;;;;;;2081768;28;20405;-87
2022/05/29 00:18:08;;;;;;;;;;;;;;;;;;2081309;28;19983;-87
2022/05/29 00:19:08;;;;;;;;;;;;;;;;;;2081155;28;19940;-87
2022/05/29 00:20:09;;;;;;;;;;;;;;;;;;2081119;28;19975;-87
2022/05/29 00:21:09;;;;;;;;;;;;;;;;;;2081269;28;20369;-87
2022/05/29 00:22:11;;;;;;;;;;;;;;;;;;2081161;28;19986;-88
2022/05/29 00:23:11;;;;;;;;;;;;;;;;;;2081274;28;19913;-86
2022/05/29 00:24:13;;;;;;;;;;;;;;;;;;2089133;28;19913;-87
2022/05/29 00:25:13;;;;;;;;;;;;;;;;;;2089882;28;19956;-88
2022/05/29 00:26:13;;;;;;;;;;;;;;;;;;2089796;28;20200;-88
2022/05/29 00:27:16;;;;;;;;;;;;;;;;;;2081211;28;19932;-86
2022/05/29 00:28:16;;;;;;;;;;;;;;;;;;2081310;28;19921;-87
2022/05/29 00:29:16;;;;;;;;;;;;;;;;;;2081165;28;19913;-87
2022/05/29 00:30:17;;;;;;;;;;;;;;;;;;2081226;28;19913;-87
2022/05/29 00:31:17;;;;;;;;;;;;;;;;;;2089683;28;19913;-87
2022/05/29 00:32:18;;;;;;;;;;;;;;;;;;2089815;28;20346;-86
2022/05/29 00:33:18;;;;;;;;;;;;;;;;;;2089905;28;19971;-87
2022/05/29 00:34:18;;;;;;;;;;;;;;;;;;2081040;28;19913;-86
2022/05/29 00:35:19;;;;;;;;;;;;;;;;;;2081172;28;20006;-87
2022/05/29 00:36:19;;;;;;;;;;;;;;;;;;2080742;28;19978;-87
2022/05/29 00:37:19;;;;;;;;;;;;;;;;;;2081199;28;20086;-87
2022/05/29 00:38:20;;;;;;;;;;;;;;;;;;2089882;28;20435;-87
2022/05/29 00:39:20;;;;;;;;;;;;;;;;;;2089744;28;19974;-88
2022/05/29 00:40:37;;;;;;;;;;;;;;;;;;2080906;28;19944;-88
2022/05/29 00:41:39;;;;;;;;;;;;;;;;;;2083488;28;19913;-89
2022/05/29 00:42:39;;;;;;;;;;;;;;;;;;2089901;28;19924;-87
2022/05/29 00:43:39;;;;;;;;;;;;;;;;;;2089800;28;19920;-89
2022/05/29 00:44:40;;;;;;;;;;;;;;;;;;2089760;28;19987;-90
2022/05/29 00:45:47;;;;;;;;;;;;;;;;;;2089759;28;19932;-86
2022/05/29 00:46:49;;;;;;;;;;;;;;;;;;2080885;28;19913;-88
2022/05/29 00:47:50;;;;;;;;;;;;;;;;;;2081341;28;19959;-88
2022/05/29 00:48:50;;;;;;;;;;;;;;;;;;2089833;28;19969;-88
2022/05/29 00:49:50;;;;;;;;;;;;;;;;;;2089753;28;19921;-87
2022/05/29 00:50:53;;;;;;;;;;;;;;;;;;2080990;28;20078;-87
2022/05/29 00:52:16;;;;;;;;;;;;;;;;;;2081071;28;19923;-88
2022/05/29 00:53:17;;;;;;;;;;;;;;;;;;2070642;28;20512;-87
2022/05/29 00:54:22;;;;;;;;;;;;;;;;;;2081101;28;20365;-87
2022/05/29 00:55:24;;;;;;;;;;;;;;;;;;2080962;28;19913;-88
2022/05/29 00:56:25;;;;;;;;;;;;;;;;;;2081011;28;19913;-88
2022/05/29 00:57:29;;;;;;;;;;;;;;;;;;2080883;28;19964;-87
2022/05/29 00:58:30;;;;;;;;;;;;;;;;;;2081009;28;19913;-87
2022/05/29 00:59:32;;;;;;;;;;;;;;;;;;2080945;28;20008;-86
2022/05/29 01:00:33;;;;;;;;;;;;;;;;;;2081068;28;19917;-86
2022/05/29 01:01:33;;;;;;;;;;;;;;;;;;2089747;28;19912;-87
2022/05/29 01:02:34;;;;;;;;;;;;;;;;;;2089778;28;19917;-86
2022/05/29 01:03:34;;;;;;;;;;;;;;;;;;2089744;28;19921;-86
2022/05/29 01:04:35;;;;;;;;;;;;;;;;;;2080981;28;20072;-86
2022/05/29 01:05:36;;;;;;;;;;;;;;;;;;2081024;28;19928;-87
2022/05/29 01:06:36;;;;;;;;;;;;;;;;;;2080983;28;20342;-87
2022/05/29 01:07:36;;;;;;;;;;;;;;;;;;2089742;28;19920;-86
2022/05/29 01:08:37;;;;;;;;;;;;;;;;;;2089769;28;20026;-86
2022/05/29 01:09:39;;;;;;;;;;;;;;;;;;2089609;28;19978;-86
2022/05/29 01:10:48;;;;;;;;;;;;;;;;;;2080779;28;20354;-86
2022/05/29 01:12:07;;;;;;;;;;;;;;;;;;2080839;28;20279;-87
2022/05/29 01:13:33;;;;;;;;;;;;;;;;;;2080866;28;19913;-87
2022/05/29 01:14:44;;;;;;;;;;;;;;;;;;2053334;28;20053;-87
2022/05/29 01:15:45;;;;;;;;;;;;;;;;;;2082546;28;19912;-87
2022/05/29 01:16:48;;;;;;;;;;;;;;;;;;2089560;28;20381;-87
2022/05/29 01:18:00;;;;;;;;;;;;;;;;;;2080914;28;19913;-87
2022/05/29 01:19:00;;;;;;;;;;;;;;;;;;2080915;28;19913;-87
2022/05/29 01:20:00;;;;;;;;;;;;;;;;;;2081012;28;19971;-87
2022/05/29 01:21:20;;;;;;;;;;;;;;;;;;2089494;28;19913;-88
2022/05/29 01:22:26;;;;;;;;;;;;;;;;;;2089508;28;19913;-88
2022/05/29 01:23:45;;;;;;;;;;;;;;;;;;2089694;28;20305;-88
2022/05/29 01:24:48;;;;;;;;;;;;;;;;;;2089770;28;19913;-86
2022/05/29 01:26:07;;;;;;;;;;;;;;;;;;2080891;28;19921;-87
2022/05/29 01:27:27;;;;;;;;;;;;;;;;;;2080762;28;20003;-87
2022/05/29 01:28:36;;;;;;;;;;;;;;;;;;2058707;28;19918;-87
2022/05/29 01:29:41;;;;;;;;;;;;;;;;;;2073248;28;19932;-86
2022/05/29 01:30:53;;;;;;;;;;;;;;;;;;2081254;28;20283;-87
2022/05/29 01:31:59;;;;;;;;;;;;;;;;;;2089667;28;19959;-86
2022/05/29 01:33:21;;;;;;;;;;;;;;;;;;2089509;28;19969;-87
2022/05/29 01:34:24;;;;;;;;;;;;;;;;;;2089628;28;19913;-87
2022/05/29 01:35:30;;;;;;;;;;;;;;;;;;2081026;28;19913;-86
2022/05/29 01:36:31;;;;;;;;;;;;;;;;;;2082384;28;20417;-87
2022/05/29 01:37:42;;;;;;;;;;;;;;;;;;2082507;28;19925;-86
2022/05/29 01:38:47;;;;;;;;;;;;;;;;;;2082317;28;20352;-86
2022/05/29 01:39:50;;;;;;;;;;;;;;;;;;2082300;28;19921;-86
2022/05/29 01:41:03;;;;;;;;;;;;;;;;;;2082492;28;19975;-86
2022/05/29 01:42:07;;;;;;;;;;;;;;;;;;2082348;28;19999;-85
2022/05/29 01:43:10;;;;;;;;;;;;;;;;;;2082848;28;19913;-86
2022/05/29 01:44:13;;;;;;;;;;;;;;;;;;2091046;28;19978;-86
2022/05/29 01:45:24;;;;;;;;;;;;;;;;;;2082490;28;20063;-86
2022/05/29 01:46:34;;;;;;;;;;;;;;;;;;2083761;28;20266;-86
2022/05/29 01:47:38;;;;;;;;;;;;;;;;;;2091029;28;19924;-86
2022/05/29 01:48:45;;;;;;;;;;;;;;;;;;2091162;28;19982;-86
2022/05/29 01:49:49;;;;;;;;;;;;;;;;;;2091044;28;19913;-86
2022/05/29 01:50:58;;;;;;;;;;;;;;;;;;2090505;28;20008;-86
2022/05/29 01:52:03;;;;;;;;;;;;;;;;;;2082235;28;20005;-86
2022/05/29 01:53:11;;;;;;;;;;;;;;;;;;2083061;28;20407;-86
2022/05/29 01:54:14;;;;;;;;;;;;;;;;;;2090927;28;20319;-86
2022/05/29 01:55:19;;;;;;;;;;;;;;;;;;2091003;28;19932;-85
2022/05/29 01:56:22;;;;;;;;;;;;;;;;;;2091050;28;19912;-86
2022/05/29 01:57:28;;;;;;;;;;;;;;;;;;2082248;28;19913;-86
2022/05/29 01:58:35;;;;;;;;;;;;;;;;;;2083006;28;20349;-86
2022/05/29 01:59:38;;;;;;;;;;;;;;;;;;2082145;28;19913;-85
2022/05/29 02:00:39;;;;;;;;;;;;;;;;;;2082358;28;19917;-86
2022/05/29 02:01:42;;;;;;;;;;;;;;;;;;2090979;28;19913;-84
2022/05/29 02:02:48;;;;;;;;;;;;;;;;;;2082136;28;20048;-85
2022/05/29 02:03:50;;;;;;;;;;;;;;;;;;2083083;28;20283;-86
2022/05/29 02:04:53;;;;;;;;;;;;;;;;;;2082066;28;19948;-86
2022/05/29 02:05:57;;;;;;;;;;;;;;;;;;2082379;28;19912;-86
2022/05/29 02:08:36;;;;;;;;;;;;;;;;;;2085388;28;19913;-84
2022/05/29 02:09:40;;;;;;;;;;;;;;;;;;2090904;28;20010;-85
2022/05/29 02:11:10;;;;;;;;;;;;;;;;;;2090824;28;19923;-86
2022/05/29 02:12:13;;;;;;;;;;;;;;;;;;2081966;28;20299;-85
2022/05/29 02:13:13;;;;;;;;;;;;;;;;;;2090859;28;20448;-86
2022/05/29 02:14:17;;;;;;;;;;;;;;;;;;2090856;28;19924;-86
2022/05/29 02:15:20;;;;;;;;;;;;;;;;;;2090878;28;20305;-85
2022/05/29 02:16:34;;;;;;;;;;;;;;;;;;2090838;28;19913;-85
2022/05/29 02:17:39;;;;;;;;;;;;;;;;;;2082003;28;19940;-86
2022/05/29 02:18:52;;;;;;;;;;;;;;;;;;2081936;28;19960;-86
2022/05/29 02:20:03;;;;;;;;;;;;;;;;;;2083849;28;19913;-86
2022/05/29 02:21:08;;;;;;;;;;;;;;;;;;2081890;28;20266;-86
2022/05/29 02:22:18;;;;;;;;;;;;;;;;;;2082747;28;20055;-86
2022/05/29 02:23:23;;;;;;;;;;;;;;;;;;2090782;28;20019;-86
2022/05/29 02:24:26;;;;;;;;;;;;;;;;;;2090642;28;20316;-85
2022/05/29 02:25:27;;;;;;;;;;;;;;;;;;2090721;28;19971;-84
2022/05/29 02:26:29;;;;;;;;;;;;;;;;;;2081960;28;20370;-83
2022/05/29 02:27:34;;;;;;;;;;;;;;;;;;2082496;28;19913;-86
2022/05/29 02:28:36;;;;;;;;;;;;;;;;;;2090649;28;19940;-86
2022/05/29 02:29:42;;;;;;;;;;;;;;;;;;2090263;28;19929;-86
2022/05/29 02:30:55;;;;;;;;;;;;;;;;;;2092468;28;20287;-86
2022/05/29 02:32:01;;;;;;;;;;;;;;;;;;2090623;28;19924;-85
2022/05/29 02:33:04;;;;;;;;;;;;;;;;;;2090692;28;20277;-86
2022/05/29 02:34:05;;;;;;;;;;;;;;;;;;2090633;28;19928;-85
2022/05/29 02:35:14;;;;;;;;;;;;;;;;;;2081877;28;19960;-86
2022/05/29 02:36:23;;;;;;;;;;;;;;;;;;2082966;28;19928;-85
2022/05/29 02:37:32;;;;;;;;;;;;;;;;;;2081932;28;19920;-87
2022/05/29 02:38:39;;;;;;;;;;;;;;;;;;2083194;28;20325;-85
2022/05/29 02:40:02;;;;;;;;;;;;;;;;;;2090685;28;19913;-85
2022/05/29 02:41:08;;;;;;;;;;;;;;;;;;2084904;28;19995;-86
2022/05/29 02:42:34;;;;;;;;;;;;;;;;;;2090600;28;19912;-86
2022/05/29 02:43:53;;;;;;;;;;;;;;;;;;2074598;28;19917;-84
2022/05/29 02:44:56;;;;;;;;;;;;;;;;;;2090678;28;19909;-84
2022/05/29 02:46:19;;;;;;;;;;;;;;;;;;2090678;28;19913;-85
2022/05/29 02:47:31;;;;;;;;;;;;;;;;;;2072276;28;19913;-85
2022/05/29 02:48:50;;;;;;;;;;;;;;;;;;2090599;28;20189;-83
2022/05/29 02:50:01;;;;;;;;;;;;;;;;;;2090545;28;20320;-84
2022/05/29 02:51:12;;;;;;;;;;;;;;;;;;2090306;28;20396;-83
2022/05/29 02:52:14;;;;;;;;;;;;;;;;;;2090443;28;19920;-85
2022/05/29 02:53:15;;;;;;;;;;;;;;;;;;2081627;28;19913;-86
2022/05/29 02:54:25;;;;;;;;;;;;;;;;;;2081737;28;19924;-85
2022/05/29 02:55:25;;;;;;;;;;;;;;;;;;2081659;28;19916;-85
2022/05/29 02:56:26;;;;;;;;;;;;;;;;;;2081535;28;19960;-87
2022/05/29 02:57:26;;;;;;;;;;;;;;;;;;2090218;28;19913;-86
2022/05/29 02:58:28;;;;;;;;;;;;;;;;;;2089739;28;19923;-85
2022/05/29 02:59:32;;;;;;;;;;;;;;;;;;2081468;28;20099;-83
2022/05/29 03:00:52;;;;;;;;;;;;;;;;;;2082013;28;20393;-87
2022/05/29 03:01:53;;;;;;;;;;;;;;;;;;2082744;28;19970;-85
2022/05/29 03:03:21;;;;;;;;;;;;;;;;;;2090272;28;19978;-85
2022/05/29 03:04:30;;;;;;;;;;;;;;;;;;2093319;28;19923;-86
2022/05/29 03:05:30;;;;;;;;;;;;;;;;;;2081517;28;19920;-84
2022/05/29 03:06:52;;;;;;;;;;;;;;;;;;2081642;28;20286;-86
2022/05/29 03:08:07;;;;;;;;;;;;;;;;;;2081487;28;19913;-86
2022/05/29 03:09:13;;;;;;;;;;;;;;;;;;2075416;28;20346;-85
2022/05/29 03:10:22;;;;;;;;;;;;;;;;;;2082404;28;19913;-85
2022/05/29 03:11:23;;;;;;;;;;;;;;;;;;2081382;28;19919;-82
2022/05/29 03:12:29;;;;;;;;;;;;;;;;;;2081604;28;19913;-85
2022/05/29 03:13:37;;;;;;;;;;;;;;;;;;2081455;28;20271;-86
2022/05/29 03:14:43;;;;;;;;;;;;;;;;;;2081660;28;19913;-85
2022/05/29 03:15:48;;;;;;;;;;;;;;;;;;2082196;28;19917;-86
2022/05/29 03:16:49;;;;;;;;;;;;;;;;;;2081574;28;19928;-86
2022/05/29 03:17:55;;;;;;;;;;;;;;;;;;2081454;28;20414;-87
2022/05/29 03:19:02;;;;;;;;;;;;;;;;;;2082335;28;19925;-85
2022/05/29 03:20:14;;;;;;;;;;;;;;;;;;2081549;28;19917;-85
2022/05/29 03:21:24;;;;;;;;;;;;;;;;;;2083092;28;19983;-86
2022/05/29 03:22:30;;;;;;;;;;;;;;;;;;2090199;28;19929;-87
2022/05/29 03:23:45;;;;;;;;;;;;;;;;;;2081426;28;20352;-85
2022/05/29 03:24:52;;;;;;;;;;;;;;;;;;2083718;28;19909;-85
2022/05/29 03:25:55;;;;;;;;;;;;;;;;;;2090049;28;19917;-87
2022/05/29 03:27:06;;;;;;;;;;;;;;;;;;2081277;28;19917;-86
2022/05/29 03:28:19;;;;;;;;;;;;;;;;;;2082847;28;20370;-87
2022/05/29 03:29:46;;;;;;;;;;;;;;;;;;2090142;28;20016;-86
2022/05/29 03:30:48;;;;;;;;;;;;;;;;;;2074080;28;19917;-85
2022/05/29 03:31:55;;;;;;;;;;;;;;;;;;2090246;28;19978;-84
2022/05/29 03:32:57;;;;;;;;;;;;;;;;;;2090178;28;20007;-85
2022/05/29 03:34:00;;;;;;;;;;;;;;;;;;2090103;28;19952;-86
2022/05/29 03:35:14;;;;;;;;;;;;;;;;;;2090171;28;19924;-84
2022/05/29 03:36:17;;;;;;;;;;;;;;;;;;2081339;28;19921;-85
2022/05/29 03:37:17;;;;;;;;;;;;;;;;;;2081517;28;19924;-85
2022/05/29 03:38:18;;;;;;;;;;;;;;;;;;2081494;28;19917;-83
2022/05/29 03:39:20;;;;;;;;;;;;;;;;;;2090048;28;20423;-84
2022/05/29 03:40:21;;;;;;;;;;;;;;;;;;2081337;28;19932;-84
2022/05/29 03:41:27;;;;;;;;;;;;;;;;;;2081522;28;20349;-84
2022/05/29 03:42:28;;;;;;;;;;;;;;;;;;2081277;28;19921;-84
2022/05/29 03:43:28;;;;;;;;;;;;;;;;;;2081346;28;20055;-85
2022/05/29 03:44:28;;;;;;;;;;;;;;;;;;2081403;28;19959;-84
2022/05/29 03:45:29;;;;;;;;;;;;;;;;;;2081398;28;20329;-84
2022/05/29 03:46:29;;;;;;;;;;;;;;;;;;2081384;28;19913;-84
2022/05/29 03:47:29;;;;;;;;;;;;;;;;;;2081314;28;19988;-84
2022/05/29 03:48:32;;;;;;;;;;;;;;;;;;2089949;28;19920;-82
2022/05/29 03:49:32;;;;;;;;;;;;;;;;;;2081445;28;20358;-82
2022/05/29 03:50:34;;;;;;;;;;;;;;;;;;2081240;28;19913;-82
2022/05/29 03:51:35;;;;;;;;;;;;;;;;;;2081395;28;19924;-84
2022/05/29 03:52:35;;;;;;;;;;;;;;;;;;2081125;28;19971;-86
2022/05/29 03:53:36;;;;;;;;;;;;;;;;;;2073156;28;20302;-88
2022/05/29 03:54:36;;;;;;;;;;;;;;;;;;2081300;28;19931;-88
2022/05/29 03:55:39;;;;;;;;;;;;;;;;;;2081149;28;19982;-89
2022/05/29 03:56:41;;;;;;;;;;;;;;;;;;2081298;28;20361;-89
2022/05/29 03:57:42;;;;;;;;;;;;;;;;;;2073292;28;20358;-89
2022/05/29 03:58:52;;;;;;;;;;;;;;;;;;2081235;28;19949;-88
2022/05/29 03:59:52;;;;;;;;;;;;;;;;;;2089920;28;19913;-85
2022/05/29 04:00:52;;;;;;;;;;;;;;;;;;2089760;28;19917;-85
2022/05/29 04:01:52;;;;;;;;;;;;;;;;;;2089984;28;19913;-84
2022/05/29 04:02:53;;;;;;;;;;;;;;;;;;2090117;28;20004;-84
2022/05/29 04:03:54;;;;;;;;;;;;;;;;;;2089791;28;20378;-84
2022/05/29 04:04:54;;;;;;;;;;;;;;;;;;2090184;28;19948;-85
2022/05/29 04:05:54;;;;;;;;;;;;;;;;;;2081181;28;20353;-84
2022/05/29 04:06:58;;;;;;;;;;;;;;;;;;2081212;28;20003;-85
2022/05/29 04:12:05;;;;;;;;;;;;;;;;;;2090118;28;20004;-86
2022/05/29 04:13:05;;;;;;;;;;;;;;;;;;2089961;28;19912;-86
2022/05/29 04:14:08;;;;;;;;;;;;;;;;;;2089880;28;19912;-86
2022/05/29 04:15:08;;;;;;;;;;;;;;;;;;2089462;28;19916;-86
2022/05/29 04:16:11;;;;;;;;;;;;;;;;;;2089384;28;20365;-86
2022/05/29 04:17:13;;;;;;;;;;;;;;;;;;2090144;28;19913;-85
2022/05/29 04:18:15;;;;;;;;;;;;;;;;;;2089420;28;20354;-85
2022/05/29 04:19:15;;;;;;;;;;;;;;;;;;2089456;28;19999;-86
2022/05/29 04:20:16;;;;;;;;;;;;;;;;;;2089778;28;19912;-88
2022/05/29 04:21:19;;;;;;;;;;;;;;;;;;2089837;28;19913;-89
2022/05/29 04:22:22;;;;;;;;;;;;;;;;;;2090019;28;20349;-88
2022/05/29 04:23:25;;;;;;;;;;;;;;;;;;2090080;28;20242;-88
2022/05/29 04:24:25;;;;;;;;;;;;;;;;;;2089788;28;19912;-89
2022/05/29 04:25:26;;;;;;;;;;;;;;;;;;2090026;28;20272;-88
2022/05/29 04:26:26;;;;;;;;;;;;;;;;;;2081053;28;19917;-86
2022/05/29 04:27:26;;;;;;;;;;;;;;;;;;2081268;28;19914;-86
2022/05/29 04:28:29;;;;;;;;;;;;;;;;;;2089767;28;20349;-88
2022/05/29 04:29:29;;;;;;;;;;;;;;;;;;2081064;28;19982;-87
2022/05/29 04:30:30;;;;;;;;;;;;;;;;;;2081021;28;19979;-87
2022/05/29 04:31:31;;;;;;;;;;;;;;;;;;2089799;28;19971;-89
2022/05/29 04:33:52;;;;;;;;;;;;;;;;;;2084244;28;19913;-85
2022/05/29 04:34:54;;;;;;;;;;;;;;;;;;2089854;28;19913;-92
2022/05/29 04:35:55;;;;;;;;;;;;;;;;;;2089918;28;20348;-86
2022/05/29 04:36:56;;;;;;;;;;;;;;;;;;2089517;28;20001;-88
2022/05/29 04:37:59;;;;;;;;;;;;;;;;;;2090205;28;20367;-87
2022/05/29 04:39:00;;;;;;;;;;;;;;;;;;2080999;28;19928;-87
2022/05/29 04:40:00;;;;;;;;;;;;;;;;;;2081060;28;19939;-88
2022/05/29 04:41:04;;;;;;;;;;;;;;;;;;2081846;28;19917;-88
2022/05/29 04:42:04;;;;;;;;;;;;;;;;;;2091106;28;19928;-88
2022/05/29 04:43:05;;;;;;;;;;;;;;;;;;2082168;28;19952;-87
2022/05/29 04:44:05;;;;;;;;;;;;;;;;;;2081578;28;20016;-88
2022/05/29 04:45:14;;;;;;;;;;;;;;;;;;2089716;28;20369;-87
2022/05/29 04:46:15;;;;;;;;;;;;;;;;;;2089863;28;19928;-88
2022/05/29 04:47:15;;;;;;;;;;;;;;;;;;2089640;28;19952;-88
2022/05/29 04:48:19;;;;;;;;;;;;;;;;;;2089534;28;20294;-89
2022/05/29 04:49:22;;;;;;;;;;;;;;;;;;2089037;28;19917;-88
2022/05/29 04:50:22;;;;;;;;;;;;;;;;;;2080975;28;20380;-89
2022/05/29 04:51:23;;;;;;;;;;;;;;;;;;2080942;28;19913;-88
2022/05/29 04:52:25;;;;;;;;;;;;;;;;;;2089618;28;19960;-89
2022/05/29 04:53:27;;;;;;;;;;;;;;;;;;2089779;28;19991;-89
2022/05/29 04:54:27;;;;;;;;;;;;;;;;;;2081090;28;19982;-91
2022/05/29 04:55:28;;;;;;;;;;;;;;;;;;2080968;28;20023;-88
2022/05/29 04:56:28;;;;;;;;;;;;;;;;;;2080982;28;20337;-86
2022/05/29 04:57:28;;;;;;;;;;;;;;;;;;2081062;28;19920;-87
2022/05/29 04:58:29;;;;;;;;;;;;;;;;;;2089648;28;19931;-88
2022/05/29 04:59:29;;;;;;;;;;;;;;;;;;2080862;28;20065;-88
2022/05/29 05:00:30;;;;;;;;;;;;;;;;;;2084686;28;20370;-89
2022/05/29 05:01:30;;;;;;;;;;;;;;;;;;2097692;28;19913;-89
2022/05/29 05:02:33;;;;;;;;;;;;;;;;;;2084457;28;19959;-89
2022/05/29 05:03:33;;;;;;;;;;;;;;;;;;2082843;28;19934;-89
2022/05/29 05:04:33;;;;;;;;;;;;;;;;;;2082539;28;20413;-90
2022/05/29 05:05:34;;;;;;;;;;;;;;;;;;2074450;28;20362;-89
2022/05/29 05:06:34;;;;;;;;;;;;;;;;;;2083042;28;19925;-88
2022/05/29 05:07:37;;;;;;;;;;;;;;;;;;2083881;28;19932;-89
2022/05/29 05:08:37;;;;;;;;;;;;;;;;;;2087511;28;19921;-90
2022/05/29 05:09:39;;;;;;;;;;;;;;;;;;2093937;28;19912;-89
2022/05/29 05:10:40;;;;;;;;;;;;;;;;;;2093304;28;20265;-89
2022/05/29 05:11:41;;;;;;;;;;;;;;;;;;2086639;28;19920;-89
2022/05/29 05:12:41;;;;;;;;;;;;;;;;;;2087542;28;19913;-90
2022/05/29 05:13:42;;;;;;;;;;;;;;;;;;2088011;28;19921;-90
2022/05/29 05:14:42;;;;;;;;;;;;;;;;;;2081998;28;20000;-90
2022/05/29 05:15:42;;;;;;;;;;;;;;;;;;2082623;28;19924;-91
2022/05/29 05:16:45;;;;;;;;;;;;;;;;;;2099324;28;20331;-91
2022/05/29 05:17:50;;;;;;;;;;;;;;;;;;2086092;28;20377;-92
2022/05/29 05:18:54;;;;;;;;;;;;;;;;;;2082881;28;19921;-90
2022/05/29 05:19:54;;;;;;;;;;;;;;;;;;2097379;28;20495;-86
2022/05/29 05:21:05;;;;;;;;;;;;;;;;;;2090215;28;19913;-88
2022/05/29 05:22:16;;;;;;;;;;;;;;;;;;2075775;28;19917;-90
2022/05/29 05:23:27;;;;;;;;;;;;;;;;;;2086556;28;19913;-90
2022/05/29 05:24:27;;;;;;;;;;;;;;;;;;2102313;28;19938;-91
2022/05/29 05:25:37;;;;;;;;;;;;;;;;;;2099438;28;20365;-91
2022/05/29 05:26:37;;;;;;;;;;;;;;;;;;2102297;28;20031;-88
2022/05/29 05:27:41;;;;;;;;;;;;;;;;;;2092071;28;20357;-90
2022/05/29 05:28:41;;;;;;;;;;;;;;;;;;2091234;28;19924;-90
2022/05/29 05:29:51;;;;;;;;;;;;;;;;;;2088804;28;20358;-89
2022/05/29 05:30:54;;;;;;;;;;;;;;;;;;2087115;28;20082;-85
2022/05/29 05:31:57;;;;;;;;;;;;;;;;;;2091118;28;19916;-86
2022/05/29 05:33:02;;;;;;;;;;;;;;;;;;2091170;28;19913;-88
2022/05/29 05:34:05;;;;;;;;;;;;;;;;;;2090859;28;19974;-88
2022/05/29 05:35:11;;;;;;;;;;;;;;;;;;2090459;28;19970;-89
2022/05/29 05:36:22;;;;;;;;;;;;;;;;;;;;;
2022/05/29 05:37:34;;;;;;;;;;;;;;;;;;2086031;28;19923;-89
2022/05/29 05:38:35;;;;;;;;;;;;;;;;;;2094038;28;19952;-89
2022/05/29 05:39:37;;;;;;;;;;;;;;;;;;2094424;28;19913;-89
2022/05/29 05:40:46;;;;;;;;;;;;;;;;;;2090395;28;20262;-88
2022/05/29 05:41:54;;;;;;;;;;;;;;;;;;2078390;28;20580;-88
2022/05/29 05:42:57;;;;;;;;;;;;;;;;;;2084152;28;19971;-89
2022/05/29 05:44:00;;;;;;;;;;;;;;;;;;2082736;28;19920;-87
2022/05/29 05:45:02;;;;;;;;;;;;;;;;;;2090975;28;20376;-87
2022/05/29 05:46:06;;;;;;;;;;;;;;;;;;2086386;28;20367;-88
2022/05/29 05:47:12;;;;;;;;;;;;;;;;;;2077115;28;19929;-89
2022/05/29 05:48:15;;;;;;;;;;;;;;;;;;2076545;28;19925;-88
2022/05/29 05:49:19;;;;;;;;;;;;;;;;;;2086074;28;19928;-90
2022/05/29 05:50:22;;;;;;;;;;;;;;;;;;2094634;28;19922;-89
2022/05/29 05:51:23;;;;;;;;;;;;;;;;;;2086651;28;19921;-90
2022/05/29 05:52:23;;;;;;;;;;;;;;;;;;2085774;28;19913;-88
2022/05/29 05:53:28;;;;;;;;;;;;;;;;;;2086760;28;19916;-89
2022/05/29 05:54:31;;;;;;;;;;;;;;;;;;2089745;28;19921;-90
2022/05/29 05:55:36;;;;;;;;;;;;;;;;;;2081397;28;20016;-89
2022/05/29 05:56:40;;;;;;;;;;;;;;;;;;2086781;28;19975;-90
2022/05/29 05:57:42;;;;;;;;;;;;;;;;;;2088373;28;20344;-90
2022/05/29 05:58:43;;;;;;;;;;;;;;;;;;2089127;28;19971;-90
2022/05/29 05:59:53;;;;;;;;;;;;;;;;;;2085114;28;19951;-90
2022/05/29 06:00:56;;;;;;;;;;;;;;;;;;2079810;28;20282;-84
2022/05/29 06:01:58;;;;;;;;;;;;;;;;;;2087981;28;20023;-90
2022/05/29 06:03:03;;;;;;;;;;;;;;;;;;2093834;28;19959;-89
2022/05/29 06:04:06;;;;;;;;;;;;;;;;;;2084775;28;20569;-89
2022/05/29 06:05:14;;;;;;;;;;;;;;;;;;2085923;28;19960;-90
2022/05/29 06:06:19;;;;;;;;;;;;;;;;;;2085764;28;19925;-90
2022/05/29 06:07:20;;;;;;;;;;;;;;;;;;2090142;28;19920;-91
2022/05/29 06:08:22;;;;;;;;;;;;;;;;;;2090540;28;19927;-89
2022/05/29 06:09:30;;;;;;;;;;;;;;;;;;2090481;28;19948;-84
2022/05/29 06:10:30;;;;;;;;;;;;;;;;;;2093400;28;19912;-85
2022/05/29 06:11:31;;;;;;;;;;;;;;;;;;2090808;28;20338;-84
2022/05/29 06:12:37;;;;;;;;;;;;;;;;;;2082080;28;19960;-84
2022/05/29 06:13:40;;;;;;;;;;;;;;;;;;2082863;28;20035;-87
2022/05/29 06:14:54;;;;;;;;;;;;;;;;;;2090863;28;19923;-83
2022/05/29 06:15:58;;;;;;;;;;;;;;;;;;2093832;28;19986;-89
2022/05/29 06:17:10;;;;;;;;;;;;;;;;;;2082584;28;19913;-86
2022/05/29 06:18:11;;;;;;;;;;;;;;;;;;2083591;28;19913;-93
2022/05/29 06:19:11;;;;;;;;;;;;;;;;;;2082393;28;20282;-90
2022/05/29 06:20:13;;;;;;;;;;;;;;;;;;2073813;28;19914;-86
2022/05/29 06:21:19;;;;;;;;;;;;;;;;;;2073139;28;20354;-88
2022/05/29 06:22:19;;;;;;;;;;;;;;;;;;2086203;28;19920;-86
2022/05/29 06:23:20;;;;;;;;;;;;;;;;;;2093729;28;19917;-86
2022/05/29 06:24:22;;;;;;;;;;;;;;;;;;2090913;28;19913;-85
2022/05/29 06:25:22;;;;;;;;;;;;;;;;;;2093376;28;19974;-90
2022/05/29 06:26:23;;;;;;;;;;;;;;;;;;2094527;28;19912;-88
2022/05/29 06:27:23;;;;;;;;;;;;;;;;;;2099025;28;19919;-87
2022/05/29 06:28:26;;;;;;;;;;;;;;;;;;2098325;28;20411;-93
2022/05/29 06:29:32;;;;;;;;;;;;;;;;;;2096515;28;19920;-89
2022/05/29 06:30:40;;;;;;;;;;;;;;;;;;2094716;28;19913;-91
2022/05/29 06:31:40;;;;;;;;;;;;;;;;;;2096091;28;19923;-87
2022/05/29 06:32:41;;;;;;;;;;;;;;;;;;2094484;28;19923;-90
2022/05/29 06:33:41;;;;;;;;;;;;;;;;;;2090618;28;20369;-89
2022/05/29 06:34:42;;;;;;;;;;;;;;;;;;2098410;28;19923;-92
2022/05/29 06:35:42;;;;;;;;;;;;;;;;;;2086336;28;20414;-91
2022/05/29 06:36:42;;;;;;;;;;;;;;;;;;2074003;28;19917;-88
2022/05/29 06:37:43;;;;;;;;;;;;;;;;;;2085721;28;19928;-85
2022/05/29 06:38:46;;;;;;;;;;;;;;;;;;2094205;28;19970;-87
2022/05/29 06:39:49;;;;;;;;;;;;;;;;;;2090666;28;19912;-89
2022/05/29 06:40:52;;;;;;;;;;;;;;;;;;2095526;28;20425;-89
2022/05/29 06:41:52;;;;;;;;;;;;;;;;;;2091925;28;20361;-89
2022/05/29 06:42:53;;;;;;;;;;;;;;;;;;2090617;28;19959;-92
2022/05/29 06:43:53;;;;;;;;;;;;;;;;;;2081825;28;20386;-91
2022/05/29 06:44:54;;;;;;;;;;;;;;;;;;2081658;28;20447;-92
2022/05/29 06:45:59;;;;;;;;;;;;;;;;;;2081980;28;19916;-90
2022/05/29 06:47:04;;;;;;;;;;;;;;;;;;2081771;28;19936;-91
2022/05/29 06:48:07;;;;;;;;;;;;;;;;;;2082454;28;19931;-91
2022/05/29 06:49:10;;;;;;;;;;;;;;;;;;2090457;28;19912;-92
2022/05/29 06:50:11;;;;;;;;;;;;;;;;;;2096750;28;19999;-89
2022/05/29 06:51:14;;;;;;;;;;;;;;;;;;2092650;28;20388;-90
2022/05/29 06:52:14;;;;;;;;;;;;;;;;;;2089246;28;19913;-91
2022/05/29 06:53:15;;;;;;;;;;;;;;;;;;2081801;28;20273;-92
2022/05/29 06:54:15;;;;;;;;;;;;;;;;;;2078533;28;20382;-86
2022/05/29 06:55:15;;;;;;;;;;;;;;;;;;2085480;28;19935;-88
2022/05/29 06:56:17;;;;;;;;;;;;;;;;;;2098302;28;19912;-90
2022/05/29 06:57:36;;;;;;;;;;;;;;;;;;2086361;28;19913;-90
2022/05/29 06:58:41;;;;;;;;;;;;;;;;;;2091045;28;20025;-89
2022/05/29 07:07:47;;;;;;;;;;;;;;;;;;2093041;28;20003;-90
2022/05/29 07:08:48;;;;;;;;;;;;;;;;;;2090610;28;19920;-89
2022/05/29 07:09:48;;;;;;;;;;;;;;;;;;2084398;28;19917;-89
2022/05/29 07:10:48;;;;;;;;;;;;;;;;;;2091552;28;20027;-91
2022/05/29 07:11:51;;;;;;;;;;;;;;;;;;2090034;28;19913;-90
2022/05/29 07:12:51;;;;;;;;;;;;;;;;;;2076044;28;20032;-89
2022/05/29 07:13:55;;;;;;;;;;;;;;;;;;2090213;28;19921;-90
2022/05/29 07:14:58;;;;;;;;;;;;;;;;;;2094608;28;19998;-89
2022/05/29 07:15:58;;;;;;;;;;;;;;;;;;2095703;28;19913;-90
2022/05/29 07:16:59;;;;;;;;;;;;;;;;;;2091977;28;20388;-90
2022/05/29 07:18:01;;;;;;;;;;;;;;;;;;2090251;28;19943;-90
2022/05/29 07:19:04;;;;;;;;;;;;;;;;;;2090722;28;19913;-90
2022/05/29 07:20:04;;;;;;;;;;;;;;;;;;2097701;28;20045;-90
2022/05/29 07:21:06;;;;;;;;;;;;;;;;;;2098598;28;19923;-90
2022/05/29 07:22:07;;;;;;;;;;;;;;;;;;2093432;28;19981;-85
2022/05/29 07:23:07;;;;;;;;;;;;;;;;;;2092514;28;20431;-90
2022/05/29 07:24:09;;;;;;;;;;;;;;;;;;2093779;28;19920;-89
2022/05/29 07:25:11;;;;;;;;;;;;;;;;;;2094352;28;20361;-89
2022/05/29 07:26:11;;;;;;;;;;;;;;;;;;2096854;28;19948;-90
2022/05/29 07:27:12;;;;;;;;;;;;;;;;;;2095008;28;19932;-89
2022/05/29 07:28:15;;;;;;;;;;;;;;;;;;2087021;28;20377;-87
2022/05/29 07:29:17;;;;;;;;;;;;;;;;;;2084579;28;19964;-88
2022/05/29 07:30:18;;;;;;;;;;;;;;;;;;2082863;28;20284;-91
2022/05/29 07:31:18;;;;;;;;;;;;;;;;;;2079601;28;19949;-91
2022/05/29 07:32:20;;;;;;;;;;;;;;;;;;2082529;28;19917;-92